sensor_id;sensor_type;location;lat;lon;timestamp;P1;durP1;ratioP1;P2;durP2;ratioP2
14526;SDS011;7350;51.208;4.238;2023-04-03T00:01:02;2.50;;;1.60;;
14526;SDS011;7350;51.208;4.238;2023-04-03T00:03:29;2.70;;;1.80;;
14526;SDS011;7350;51.208;4.238;2023-04-03T00:05:56;2.13;;;1.70;;
14526;SDS011;7350;51.208;4.238;2023-04-03T00:08:25;1.88;;;1.65;;
14526;SDS011;7350;51.208;4.238;2023-04-03T00:10:52;3.33;;;2.00;;
14526;SDS011;7350;51.208;4.238;2023-04-03T00:13:19;2.45;;;1.70;;
14526;SDS011;7350;51.208;4.238;2023-04-03T00:15:45;2.20;;;1.70;;
14526;SDS011;7350;51.208;4.238;2023-04-03T00:18:12;1.95;;;1.73;;
14526;SDS011;7350;51.208;4.238;2023-04-03T00:20:40;2.17;;;1.67;;
14526;SDS011;7350;51.208;4.238;2023-04-03T00:23:07;3.45;;;1.95;;
14526;SDS011;7350;51.208;4.238;2023-04-03T00:25:35;2.08;;;1.88;;
14526;SDS011;7350;51.208;4.238;2023-04-03T00:28:03;2.28;;;1.60;;
14526;SDS011;7350;51.208;4.238;2023-04-03T00:30:31;1.55;;;1.42;;
14526;SDS011;7350;51.208;4.238;2023-04-03T00:32:58;2.30;;;1.90;;
14526;SDS011;7350;51.208;4.238;2023-04-03T00:35:25;2.13;;;1.88;;
14526;SDS011;7350;51.208;4.238;2023-04-03T00:37:53;5.30;;;1.83;;
14526;SDS011;7350;51.208;4.238;2023-04-03T00:40:21;2.50;;;2.10;;
14526;SDS011;7350;51.208;4.238;2023-04-03T00:42:54;1.70;;;1.60;;
14526;SDS011;7350;51.208;4.238;2023-04-03T00:45:24;2.22;;;1.70;;
14526;SDS011;7350;51.208;4.238;2023-04-03T00:48:02;2.33;;;1.80;;
14526;SDS011;7350;51.208;4.238;2023-04-03T00:50:32;2.20;;;1.80;;
14526;SDS011;7350;51.208;4.238;2023-04-03T00:53:03;3.03;;;1.63;;
14526;SDS011;7350;51.208;4.238;2023-04-03T00:55:31;1.80;;;1.60;;
14526;SDS011;7350;51.208;4.238;2023-04-03T00:58:00;2.08;;;1.63;;
14526;SDS011;7350;51.208;4.238;2023-04-03T01:00:27;2.15;;;1.70;;
14526;SDS011;7350;51.208;4.238;2023-04-03T01:02:54;1.70;;;1.60;;
14526;SDS011;7350;51.208;4.238;2023-04-03T01:05:22;2.50;;;2.05;;
14526;SDS011;7350;51.208;4.238;2023-04-03T01:07:49;2.17;;;1.80;;
14526;SDS011;7350;51.208;4.238;2023-04-03T01:10:18;2.20;;;1.95;;
14526;SDS011;7350;51.208;4.238;2023-04-03T01:12:46;2.15;;;1.80;;
14526;SDS011;7350;51.208;4.238;2023-04-03T01:15:17;2.08;;;1.70;;
14526;SDS011;7350;51.208;4.238;2023-04-03T01:17:48;3.17;;;2.13;;
14526;SDS011;7350;51.208;4.238;2023-04-03T01:23:38;2.25;;;2.05;;
14526;SDS011;7350;51.208;4.238;2023-04-03T01:26:17;2.58;;;1.88;;
14526;SDS011;7350;51.208;4.238;2023-04-03T01:28:45;2.72;;;2.00;;
14526;SDS011;7350;51.208;4.238;2023-04-03T01:31:15;2.28;;;1.63;;
14526;SDS011;7350;51.208;4.238;2023-04-03T01:33:48;2.58;;;1.90;;
14526;SDS011;7350;51.208;4.238;2023-04-03T01:36:16;2.10;;;1.90;;
14526;SDS011;7350;51.208;4.238;2023-04-03T01:38:45;2.22;;;2.03;;
14526;SDS011;7350;51.208;4.238;2023-04-03T01:41:12;2.20;;;2.00;;
14526;SDS011;7350;51.208;4.238;2023-04-03T01:43:40;2.47;;;2.28;;
14526;SDS011;7350;51.208;4.238;2023-04-03T01:46:07;2.38;;;1.98;;
14526;SDS011;7350;51.208;4.238;2023-04-03T01:48:34;2.15;;;1.95;;
14526;SDS011;7350;51.208;4.238;2023-04-03T01:51:03;2.05;;;1.80;;
14526;SDS011;7350;51.208;4.238;2023-04-03T01:53:30;3.38;;;1.95;;
14526;SDS011;7350;51.208;4.238;2023-04-03T01:55:57;2.38;;;1.70;;
14526;SDS011;7350;51.208;4.238;2023-04-03T01:58:24;3.40;;;2.03;;
14526;SDS011;7350;51.208;4.238;2023-04-03T02:00:51;2.10;;;1.90;;
14526;SDS011;7350;51.208;4.238;2023-04-03T02:03:19;2.17;;;1.85;;
14526;SDS011;7350;51.208;4.238;2023-04-03T02:05:49;2.28;;;1.90;;
14526;SDS011;7350;51.208;4.238;2023-04-03T02:08:18;2.05;;;1.80;;
14526;SDS011;7350;51.208;4.238;2023-04-03T02:10:46;2.78;;;2.00;;
14526;SDS011;7350;51.208;4.238;2023-04-03T02:13:14;2.00;;;1.83;;
14526;SDS011;7350;51.208;4.238;2023-04-03T02:15:41;2.63;;;2.20;;
14526;SDS011;7350;51.208;4.238;2023-04-03T02:18:08;2.20;;;1.95;;
14526;SDS011;7350;51.208;4.238;2023-04-03T02:20:35;1.92;;;1.80;;
14526;SDS011;7350;51.208;4.238;2023-04-03T02:23:02;2.97;;;2.10;;
14526;SDS011;7350;51.208;4.238;2023-04-03T02:25:32;2.13;;;1.92;;
14526;SDS011;7350;51.208;4.238;2023-04-03T02:27:59;3.25;;;2.15;;
14526;SDS011;7350;51.208;4.238;2023-04-03T02:30:26;2.28;;;2.08;;
14526;SDS011;7350;51.208;4.238;2023-04-03T02:32:53;1.70;;;1.60;;
14526;SDS011;7350;51.208;4.238;2023-04-03T02:35:20;1.80;;;1.67;;
14526;SDS011;7350;51.208;4.238;2023-04-03T02:37:47;2.25;;;2.05;;
14526;SDS011;7350;51.208;4.238;2023-04-03T02:40:14;2.50;;;1.90;;
14526;SDS011;7350;51.208;4.238;2023-04-03T02:42:43;2.58;;;2.03;;
14526;SDS011;7350;51.208;4.238;2023-04-03T02:45:10;2.20;;;1.98;;
14526;SDS011;7350;51.208;4.238;2023-04-03T02:47:37;2.03;;;1.77;;
14526;SDS011;7350;51.208;4.238;2023-04-03T02:50:04;2.75;;;1.90;;
14526;SDS011;7350;51.208;4.238;2023-04-03T02:52:31;2.30;;;1.85;;
14526;SDS011;7350;51.208;4.238;2023-04-03T02:54:58;2.45;;;1.92;;
14526;SDS011;7350;51.208;4.238;2023-04-03T02:57:25;2.25;;;1.85;;
14526;SDS011;7350;51.208;4.238;2023-04-03T02:59:54;3.03;;;2.30;;
14526;SDS011;7350;51.208;4.238;2023-04-03T03:02:21;2.33;;;2.13;;
14526;SDS011;7350;51.208;4.238;2023-04-03T03:04:47;2.45;;;2.10;;
14526;SDS011;7350;51.208;4.238;2023-04-03T03:07:14;3.35;;;2.00;;
14526;SDS011;7350;51.208;4.238;2023-04-03T03:09:41;2.33;;;2.08;;
14526;SDS011;7350;51.208;4.238;2023-04-03T03:12:08;2.47;;;2.25;;
14526;SDS011;7350;51.208;4.238;2023-04-03T03:14:35;2.00;;;1.80;;
14526;SDS011;7350;51.208;4.238;2023-04-03T03:17:04;2.10;;;1.90;;
14526;SDS011;7350;51.208;4.238;2023-04-03T03:19:31;2.10;;;1.90;;
14526;SDS011;7350;51.208;4.238;2023-04-03T03:21:58;2.40;;;2.20;;
14526;SDS011;7350;51.208;4.238;2023-04-03T03:24:25;3.38;;;2.10;;
14526;SDS011;7350;51.208;4.238;2023-04-03T03:26:51;2.38;;;2.17;;
14526;SDS011;7350;51.208;4.238;2023-04-03T03:29:19;2.40;;;1.92;;
14526;SDS011;7350;51.208;4.238;2023-04-03T03:31:46;2.50;;;2.17;;
14526;SDS011;7350;51.208;4.238;2023-04-03T03:34:14;2.65;;;2.10;;
14526;SDS011;7350;51.208;4.238;2023-04-03T03:36:41;2.67;;;2.15;;
14526;SDS011;7350;51.208;4.238;2023-04-03T03:39:08;2.33;;;1.95;;
14526;SDS011;7350;51.208;4.238;2023-04-03T03:41:35;3.67;;;2.22;;
14526;SDS011;7350;51.208;4.238;2023-04-03T03:44:02;2.97;;;2.30;;
14526;SDS011;7350;51.208;4.238;2023-04-03T03:46:30;2.25;;;1.88;;
14526;SDS011;7350;51.208;4.238;2023-04-03T03:48:57;2.50;;;2.20;;
14526;SDS011;7350;51.208;4.238;2023-04-03T03:51:25;2.58;;;2.10;;
14526;SDS011;7350;51.208;4.238;2023-04-03T03:53:52;2.85;;;1.90;;
14526;SDS011;7350;51.208;4.238;2023-04-03T03:56:20;2.85;;;2.10;;
14526;SDS011;7350;51.208;4.238;2023-04-03T03:58:47;2.97;;;2.10;;
14526;SDS011;7350;51.208;4.238;2023-04-03T04:01:14;2.42;;;1.90;;
14526;SDS011;7350;51.208;4.238;2023-04-03T04:03:41;3.03;;;2.33;;
14526;SDS011;7350;51.208;4.238;2023-04-03T04:06:08;2.28;;;1.85;;
14526;SDS011;7350;51.208;4.238;2023-04-03T04:08:37;2.45;;;1.90;;
14526;SDS011;7350;51.208;4.238;2023-04-03T04:11:04;2.38;;;2.00;;
14526;SDS011;7350;51.208;4.238;2023-04-03T04:13:31;2.42;;;2.10;;
14526;SDS011;7350;51.208;4.238;2023-04-03T04:15:58;2.28;;;1.60;;
14526;SDS011;7350;51.208;4.238;2023-04-03T04:18:25;4.10;;;1.92;;
14526;SDS011;7350;51.208;4.238;2023-04-03T04:20:52;2.47;;;1.95;;
14526;SDS011;7350;51.208;4.238;2023-04-03T04:23:19;1.88;;;1.60;;
14526;SDS011;7350;51.208;4.238;2023-04-03T04:25:47;1.90;;;1.77;;
14526;SDS011;7350;51.208;4.238;2023-04-03T04:28:15;2.13;;;1.80;;
14526;SDS011;7350;51.208;4.238;2023-04-03T04:30:42;2.05;;;1.85;;
14526;SDS011;7350;51.208;4.238;2023-04-03T04:33:09;1.88;;;1.70;;
14526;SDS011;7350;51.208;4.238;2023-04-03T04:35:36;2.33;;;1.90;;
14526;SDS011;7350;51.208;4.238;2023-04-03T04:38:03;2.90;;;1.83;;
14526;SDS011;7350;51.208;4.238;2023-04-03T04:40:30;1.60;;;1.50;;
14526;SDS011;7350;51.208;4.238;2023-04-03T04:42:59;1.98;;;1.75;;
14526;SDS011;7350;51.208;4.238;2023-04-03T04:45:26;2.00;;;1.80;;
14526;SDS011;7350;51.208;4.238;2023-04-03T04:47:54;1.95;;;1.60;;
14526;SDS011;7350;51.208;4.238;2023-04-03T04:50:22;1.73;;;1.63;;
14526;SDS011;7350;51.208;4.238;2023-04-03T04:52:49;1.65;;;1.40;;
14526;SDS011;7350;51.208;4.238;2023-04-03T04:55:16;1.70;;;1.60;;
14526;SDS011;7350;51.208;4.238;2023-04-03T04:57:43;3.08;;;1.75;;
14526;SDS011;7350;51.208;4.238;2023-04-03T05:00:12;2.25;;;1.60;;
14526;SDS011;7350;51.208;4.238;2023-04-03T05:02:40;2.15;;;1.95;;
14526;SDS011;7350;51.208;4.238;2023-04-03T05:05:07;1.45;;;1.30;;
14526;SDS011;7350;51.208;4.238;2023-04-03T05:07:35;2.00;;;1.67;;
14526;SDS011;7350;51.208;4.238;2023-04-03T05:10:02;2.13;;;1.88;;
14526;SDS011;7350;51.208;4.238;2023-04-03T05:12:29;2.25;;;1.90;;
14526;SDS011;7350;51.208;4.238;2023-04-03T05:14:56;1.85;;;1.65;;
14526;SDS011;7350;51.208;4.238;2023-04-03T05:17:25;3.60;;;1.65;;
14526;SDS011;7350;51.208;4.238;2023-04-03T05:19:51;2.58;;;1.58;;
14526;SDS011;7350;51.208;4.238;2023-04-03T05:22:18;2.00;;;1.70;;
14526;SDS011;7350;51.208;4.238;2023-04-03T05:24:46;2.22;;;1.75;;
14526;SDS011;7350;51.208;4.238;2023-04-03T05:27:13;2.05;;;1.80;;
14526;SDS011;7350;51.208;4.238;2023-04-03T05:29:40;2.05;;;1.63;;
14526;SDS011;7350;51.208;4.238;2023-04-03T05:32:08;2.53;;;1.90;;
14526;SDS011;7350;51.208;4.238;2023-04-03T05:34:37;3.35;;;1.85;;
14526;SDS011;7350;51.208;4.238;2023-04-03T05:37:04;1.85;;;1.58;;
14526;SDS011;7350;51.208;4.238;2023-04-03T05:39:31;2.17;;;1.73;;
14526;SDS011;7350;51.208;4.238;2023-04-03T05:41:58;1.70;;;1.60;;
14526;SDS011;7350;51.208;4.238;2023-04-03T05:44:28;3.10;;;1.90;;
14526;SDS011;7350;51.208;4.238;2023-04-03T05:46:55;2.20;;;1.70;;
14526;SDS011;7350;51.208;4.238;2023-04-03T05:49:22;2.65;;;2.03;;
14526;SDS011;7350;51.208;4.238;2023-04-03T05:51:51;2.80;;;2.00;;
14526;SDS011;7350;51.208;4.238;2023-04-03T05:54:18;3.38;;;2.20;;
14526;SDS011;7350;51.208;4.238;2023-04-03T05:56:48;3.70;;;2.35;;
14526;SDS011;7350;51.208;4.238;2023-04-03T05:59:20;2.20;;;1.70;;
14526;SDS011;7350;51.208;4.238;2023-04-03T06:01:47;2.58;;;1.83;;
14526;SDS011;7350;51.208;4.238;2023-04-03T06:04:15;6.15;;;2.10;;
14526;SDS011;7350;51.208;4.238;2023-04-03T06:06:42;2.35;;;1.92;;
14526;SDS011;7350;51.208;4.238;2023-04-03T06:09:12;2.42;;;1.95;;
14526;SDS011;7350;51.208;4.238;2023-04-03T06:11:39;4.38;;;2.22;;
14526;SDS011;7350;51.208;4.238;2023-04-03T06:14:06;5.57;;;2.15;;
14526;SDS011;7350;51.208;4.238;2023-04-03T06:16:34;3.47;;;2.20;;
14526;SDS011;7350;51.208;4.238;2023-04-03T06:19:01;10.00;;;5.70;;
14526;SDS011;7350;51.208;4.238;2023-04-03T06:21:29;5.28;;;4.57;;
14526;SDS011;7350;51.208;4.238;2023-04-03T06:23:56;13.15;;;8.18;;
14526;SDS011;7350;51.208;4.238;2023-04-03T06:26:25;5.85;;;3.55;;
14526;SDS011;7350;51.208;4.238;2023-04-03T06:28:52;11.75;;;8.30;;
14526;SDS011;7350;51.208;4.238;2023-04-03T06:31:19;21.05;;;13.18;;
14526;SDS011;7350;51.208;4.238;2023-04-03T06:33:46;8.50;;;4.70;;
14526;SDS011;7350;51.208;4.238;2023-04-03T06:36:13;3.95;;;2.92;;
14526;SDS011;7350;51.208;4.238;2023-04-03T06:38:40;5.97;;;2.92;;
14526;SDS011;7350;51.208;4.238;2023-04-03T06:41:10;5.40;;;3.38;;
14526;SDS011;7350;51.208;4.238;2023-04-03T06:43:38;3.88;;;2.83;;
14526;SDS011;7350;51.208;4.238;2023-04-03T06:46:05;4.25;;;2.63;;
14526;SDS011;7350;51.208;4.238;2023-04-03T06:48:32;5.25;;;3.08;;
14526;SDS011;7350;51.208;4.238;2023-04-03T06:50:59;5.97;;;2.88;;
14526;SDS011;7350;51.208;4.238;2023-04-03T06:53:26;5.75;;;3.20;;
14526;SDS011;7350;51.208;4.238;2023-04-03T06:55:53;7.13;;;3.40;;
14526;SDS011;7350;51.208;4.238;2023-04-03T06:58:20;4.50;;;3.20;;
14526;SDS011;7350;51.208;4.238;2023-04-03T07:00:49;5.88;;;3.13;;
14526;SDS011;7350;51.208;4.238;2023-04-03T07:03:15;4.40;;;2.90;;
14526;SDS011;7350;51.208;4.238;2023-04-03T07:05:43;6.50;;;3.53;;
14526;SDS011;7350;51.208;4.238;2023-04-03T07:08:10;5.38;;;2.55;;
14526;SDS011;7350;51.208;4.238;2023-04-03T07:10:37;5.07;;;3.08;;
14526;SDS011;7350;51.208;4.238;2023-04-03T07:13:05;6.55;;;3.33;;
14526;SDS011;7350;51.208;4.238;2023-04-03T07:15:32;4.60;;;3.50;;
14526;SDS011;7350;51.208;4.238;2023-04-03T07:18:00;4.40;;;2.80;;
14526;SDS011;7350;51.208;4.238;2023-04-03T07:20:27;5.35;;;3.00;;
14526;SDS011;7350;51.208;4.238;2023-04-03T07:22:54;4.80;;;2.97;;
14526;SDS011;7350;51.208;4.238;2023-04-03T07:25:21;4.47;;;2.63;;
14526;SDS011;7350;51.208;4.238;2023-04-03T07:27:48;5.43;;;2.80;;
14526;SDS011;7350;51.208;4.238;2023-04-03T07:30:15;5.45;;;2.72;;
14526;SDS011;7350;51.208;4.238;2023-04-03T07:32:42;4.75;;;2.97;;
14526;SDS011;7350;51.208;4.238;2023-04-03T07:35:11;3.85;;;2.80;;
14526;SDS011;7350;51.208;4.238;2023-04-03T07:37:38;5.35;;;3.10;;
14526;SDS011;7350;51.208;4.238;2023-04-03T07:40:06;4.80;;;3.35;;
14526;SDS011;7350;51.208;4.238;2023-04-03T07:42:33;4.80;;;2.78;;
14526;SDS011;7350;51.208;4.238;2023-04-03T07:45:01;6.25;;;2.80;;
14526;SDS011;7350;51.208;4.238;2023-04-03T07:47:28;6.72;;;3.28;;
14526;SDS011;7350;51.208;4.238;2023-04-03T07:49:56;6.30;;;2.72;;
14526;SDS011;7350;51.208;4.238;2023-04-03T07:52:25;6.72;;;3.28;;
14526;SDS011;7350;51.208;4.238;2023-04-03T07:54:52;3.88;;;2.55;;
14526;SDS011;7350;51.208;4.238;2023-04-03T07:57:19;4.70;;;3.10;;
14526;SDS011;7350;51.208;4.238;2023-04-03T07:59:46;4.90;;;2.80;;
14526;SDS011;7350;51.208;4.238;2023-04-03T08:02:13;6.00;;;3.00;;
14526;SDS011;7350;51.208;4.238;2023-04-03T08:04:40;4.05;;;2.75;;
14526;SDS011;7350;51.208;4.238;2023-04-03T08:07:06;6.53;;;2.53;;
14526;SDS011;7350;51.208;4.238;2023-04-03T08:09:35;4.70;;;2.75;;
14526;SDS011;7350;51.208;4.238;2023-04-03T08:12:02;5.03;;;2.72;;
14526;SDS011;7350;51.208;4.238;2023-04-03T08:14:30;7.13;;;2.67;;
14526;SDS011;7350;51.208;4.238;2023-04-03T08:16:59;4.68;;;2.63;;
14526;SDS011;7350;51.208;4.238;2023-04-03T08:19:27;5.25;;;2.95;;
14526;SDS011;7350;51.208;4.238;2023-04-03T08:21:54;5.93;;;2.78;;
14526;SDS011;7350;51.208;4.238;2023-04-03T08:24:22;4.65;;;2.90;;
14526;SDS011;7350;51.208;4.238;2023-04-03T08:26:51;4.78;;;2.78;;
14526;SDS011;7350;51.208;4.238;2023-04-03T08:29:18;5.38;;;2.75;;
14526;SDS011;7350;51.208;4.238;2023-04-03T08:31:46;4.53;;;2.80;;
14526;SDS011;7350;51.208;4.238;2023-04-03T08:34:14;4.00;;;2.38;;
14526;SDS011;7350;51.208;4.238;2023-04-03T08:36:41;4.70;;;2.50;;
14526;SDS011;7350;51.208;4.238;2023-04-03T08:39:09;5.22;;;2.53;;
14526;SDS011;7350;51.208;4.238;2023-04-03T08:41:37;4.22;;;2.20;;
14526;SDS011;7350;51.208;4.238;2023-04-03T08:44:15;5.57;;;2.80;;
14526;SDS011;7350;51.208;4.238;2023-04-03T08:47:01;4.45;;;2.50;;
14526;SDS011;7350;51.208;4.238;2023-04-03T08:49:35;3.55;;;2.50;;
14526;SDS011;7350;51.208;4.238;2023-04-03T08:52:09;2.97;;;2.03;;
14526;SDS011;7350;51.208;4.238;2023-04-03T08:54:41;3.70;;;2.47;;
14526;SDS011;7350;51.208;4.238;2023-04-03T08:57:17;3.22;;;2.15;;
14526;SDS011;7350;51.208;4.238;2023-04-03T08:59:52;4.15;;;2.40;;
14526;SDS011;7350;51.208;4.238;2023-04-03T09:02:24;4.90;;;2.47;;
14526;SDS011;7350;51.208;4.238;2023-04-03T09:04:55;4.13;;;2.22;;
14526;SDS011;7350;51.208;4.238;2023-04-03T09:07:25;4.43;;;2.35;;
14526;SDS011;7350;51.208;4.238;2023-04-03T09:09:59;4.15;;;2.30;;
14526;SDS011;7350;51.208;4.238;2023-04-03T09:12:32;3.25;;;1.98;;
14526;SDS011;7350;51.208;4.238;2023-04-03T09:15:08;3.83;;;2.20;;
14526;SDS011;7350;51.208;4.238;2023-04-03T09:17:42;5.05;;;2.22;;
14526;SDS011;7350;51.208;4.238;2023-04-03T09:20:19;4.88;;;2.30;;
14526;SDS011;7350;51.208;4.238;2023-04-03T09:22:51;5.78;;;2.00;;
14526;SDS011;7350;51.208;4.238;2023-04-03T09:25:20;4.25;;;1.92;;
14526;SDS011;7350;51.208;4.238;2023-04-03T09:27:48;2.97;;;1.92;;
14526;SDS011;7350;51.208;4.238;2023-04-03T09:30:17;4.05;;;2.10;;
14526;SDS011;7350;51.208;4.238;2023-04-03T09:32:47;4.10;;;1.85;;
14526;SDS011;7350;51.208;4.238;2023-04-03T09:35:16;4.25;;;1.77;;
14526;SDS011;7350;51.208;4.238;2023-04-03T09:37:50;5.32;;;2.05;;
14526;SDS011;7350;51.208;4.238;2023-04-03T09:40:30;3.95;;;1.73;;
14526;SDS011;7350;51.208;4.238;2023-04-03T09:43:19;3.00;;;1.60;;
14526;SDS011;7350;51.208;4.238;2023-04-03T09:45:52;4.07;;;1.60;;
14526;SDS011;7350;51.208;4.238;2023-04-03T09:48:21;7.10;;;2.05;;
14526;SDS011;7350;51.208;4.238;2023-04-03T09:50:53;10.15;;;2.40;;
14526;SDS011;7350;51.208;4.238;2023-04-03T09:53:31;8.18;;;2.13;;
14526;SDS011;7350;51.208;4.238;2023-04-03T09:56:01;13.02;;;2.45;;
14526;SDS011;7350;51.208;4.238;2023-04-03T09:58:30;10.43;;;2.25;;
14526;SDS011;7350;51.208;4.238;2023-04-03T10:01:01;8.80;;;2.28;;
14526;SDS011;7350;51.208;4.238;2023-04-03T10:03:30;10.23;;;2.30;;
14526;SDS011;7350;51.208;4.238;2023-04-03T10:06:00;9.07;;;2.20;;
14526;SDS011;7350;51.208;4.238;2023-04-03T10:08:28;10.05;;;2.10;;
14526;SDS011;7350;51.208;4.238;2023-04-03T10:11:13;7.00;;;2.28;;
14526;SDS011;7350;51.208;4.238;2023-04-03T10:13:51;11.27;;;2.20;;
14526;SDS011;7350;51.208;4.238;2023-04-03T10:16:23;8.93;;;1.95;;
14526;SDS011;7350;51.208;4.238;2023-04-03T10:18:56;6.47;;;1.95;;
14526;SDS011;7350;51.208;4.238;2023-04-03T10:21:34;8.55;;;2.00;;
14526;SDS011;7350;51.208;4.238;2023-04-03T10:24:09;7.57;;;2.25;;
14526;SDS011;7350;51.208;4.238;2023-04-03T10:26:42;6.70;;;2.20;;
14526;SDS011;7350;51.208;4.238;2023-04-03T10:29:18;6.95;;;1.90;;
14526;SDS011;7350;51.208;4.238;2023-04-03T10:31:58;9.23;;;2.13;;
14526;SDS011;7350;51.208;4.238;2023-04-03T10:34:30;4.95;;;1.50;;
14526;SDS011;7350;51.208;4.238;2023-04-03T10:37:02;9.52;;;2.30;;
14526;SDS011;7350;51.208;4.238;2023-04-03T10:39:39;7.95;;;1.77;;
14526;SDS011;7350;51.208;4.238;2023-04-03T10:42:16;4.63;;;1.52;;
14526;SDS011;7350;51.208;4.238;2023-04-03T10:44:52;4.43;;;1.45;;
14526;SDS011;7350;51.208;4.238;2023-04-03T10:47:30;6.65;;;1.77;;
14526;SDS011;7350;51.208;4.238;2023-04-03T10:50:12;5.68;;;1.80;;
14526;SDS011;7350;51.208;4.238;2023-04-03T10:52:54;5.47;;;1.80;;
14526;SDS011;7350;51.208;4.238;2023-04-03T10:55:31;6.90;;;1.88;;
14526;SDS011;7350;51.208;4.238;2023-04-03T10:58:03;4.60;;;1.60;;
14526;SDS011;7350;51.208;4.238;2023-04-03T11:00:35;5.10;;;1.55;;
14526;SDS011;7350;51.208;4.238;2023-04-03T11:03:08;6.45;;;1.80;;
14526;SDS011;7350;51.208;4.238;2023-04-03T11:05:40;5.05;;;1.70;;
14526;SDS011;7350;51.208;4.238;2023-04-03T11:08:12;4.60;;;1.42;;
14526;SDS011;7350;51.208;4.238;2023-04-03T11:10:48;8.48;;;1.83;;
14526;SDS011;7350;51.208;4.238;2023-04-03T11:13:17;5.13;;;1.75;;
14526;SDS011;7350;51.208;4.238;2023-04-03T11:15:48;4.80;;;1.50;;
14526;SDS011;7350;51.208;4.238;2023-04-03T11:18:19;3.72;;;1.48;;
14526;SDS011;7350;51.208;4.238;2023-04-03T11:20:53;4.38;;;1.42;;
14526;SDS011;7350;51.208;4.238;2023-04-03T11:23:28;6.25;;;1.40;;
14526;SDS011;7350;51.208;4.238;2023-04-03T11:26:00;5.53;;;1.83;;
14526;SDS011;7350;51.208;4.238;2023-04-03T11:28:33;4.40;;;1.83;;
14526;SDS011;7350;51.208;4.238;2023-04-03T11:31:02;5.18;;;2.20;;
14526;SDS011;7350;51.208;4.238;2023-04-03T11:33:47;6.50;;;2.50;;
14526;SDS011;7350;51.208;4.238;2023-04-03T11:36:22;6.15;;;2.75;;
14526;SDS011;7350;51.208;4.238;2023-04-03T11:38:52;10.10;;;2.85;;
14526;SDS011;7350;51.208;4.238;2023-04-03T11:41:24;7.85;;;3.33;;
14526;SDS011;7350;51.208;4.238;2023-04-03T11:43:58;12.02;;;4.03;;
14526;SDS011;7350;51.208;4.238;2023-04-03T11:52:28;9.75;;;3.45;;
14526;SDS011;7350;51.208;4.238;2023-04-03T11:58:21;9.07;;;3.67;;
14526;SDS011;7350;51.208;4.238;2023-04-03T12:12:41;8.55;;;3.00;;
14526;SDS011;7350;51.208;4.238;2023-04-03T12:15:22;10.45;;;3.50;;
14526;SDS011;7350;51.208;4.238;2023-04-03T12:17:51;9.35;;;2.85;;
14526;SDS011;7350;51.208;4.238;2023-04-03T12:23:25;8.07;;;3.67;;
14526;SDS011;7350;51.208;4.238;2023-04-03T12:26:01;6.28;;;2.75;;
14526;SDS011;7350;51.208;4.238;2023-04-03T12:28:36;8.00;;;3.08;;
14526;SDS011;7350;51.208;4.238;2023-04-03T12:31:05;6.90;;;2.97;;
14526;SDS011;7350;51.208;4.238;2023-04-03T12:33:38;10.55;;;3.30;;
14526;SDS011;7350;51.208;4.238;2023-04-03T12:36:26;7.85;;;3.08;;
14526;SDS011;7350;51.208;4.238;2023-04-03T12:39:18;6.43;;;2.45;;
14526;SDS011;7350;51.208;4.238;2023-04-03T12:42:06;9.02;;;2.90;;
14526;SDS011;7350;51.208;4.238;2023-04-03T12:44:45;7.90;;;3.20;;
14526;SDS011;7350;51.208;4.238;2023-04-03T12:47:21;6.10;;;2.30;;
14526;SDS011;7350;51.208;4.238;2023-04-03T12:49:52;7.18;;;2.67;;
14526;SDS011;7350;51.208;4.238;2023-04-03T12:52:22;6.60;;;2.95;;
14526;SDS011;7350;51.208;4.238;2023-04-03T12:54:58;5.97;;;2.63;;
14526;SDS011;7350;51.208;4.238;2023-04-03T12:57:30;5.18;;;2.75;;
14526;SDS011;7350;51.208;4.238;2023-04-03T12:59:58;6.28;;;2.30;;
14526;SDS011;7350;51.208;4.238;2023-04-03T13:02:25;5.13;;;2.40;;
14526;SDS011;7350;51.208;4.238;2023-04-03T13:04:55;5.43;;;2.42;;
14526;SDS011;7350;51.208;4.238;2023-04-03T13:07:25;4.47;;;2.10;;
14526;SDS011;7350;51.208;4.238;2023-04-03T13:10:00;7.95;;;2.40;;
14526;SDS011;7350;51.208;4.238;2023-04-03T13:12:31;4.10;;;2.13;;
14526;SDS011;7350;51.208;4.238;2023-04-03T13:14:59;4.15;;;2.10;;
14526;SDS011;7350;51.208;4.238;2023-04-03T13:17:29;5.03;;;1.80;;
14526;SDS011;7350;51.208;4.238;2023-04-03T13:20:06;5.18;;;2.03;;
14526;SDS011;7350;51.208;4.238;2023-04-03T13:22:38;4.15;;;1.80;;
14526;SDS011;7350;51.208;4.238;2023-04-03T13:25:13;5.80;;;2.17;;
14526;SDS011;7350;51.208;4.238;2023-04-03T13:27:44;4.13;;;1.92;;
14526;SDS011;7350;51.208;4.238;2023-04-03T13:33:02;5.05;;;1.70;;
14526;SDS011;7350;51.208;4.238;2023-04-03T13:35:33;2.90;;;1.63;;
14526;SDS011;7350;51.208;4.238;2023-04-03T13:38:06;4.93;;;1.77;;
14526;SDS011;7350;51.208;4.238;2023-04-03T13:40:48;3.90;;;1.42;;
14526;SDS011;7350;51.208;4.238;2023-04-03T13:43:19;5.57;;;1.70;;
14526;SDS011;7350;51.208;4.238;2023-04-03T13:48:49;2.33;;;1.45;;
14526;SDS011;7350;51.208;4.238;2023-04-03T13:51:18;3.53;;;1.42;;
14526;SDS011;7350;51.208;4.238;2023-04-03T13:53:50;3.78;;;1.67;;
14526;SDS011;7350;51.208;4.238;2023-04-03T13:56:20;2.10;;;1.23;;
14526;SDS011;7350;51.208;4.238;2023-04-03T13:58:56;2.85;;;1.48;;
14526;SDS011;7350;51.208;4.238;2023-04-03T14:01:33;3.25;;;1.63;;
14526;SDS011;7350;51.208;4.238;2023-04-03T14:04:10;3.58;;;1.40;;
14526;SDS011;7350;51.208;4.238;2023-04-03T14:06:41;2.60;;;1.45;;
14526;SDS011;7350;51.208;4.238;2023-04-03T14:09:09;3.90;;;1.50;;
14526;SDS011;7350;51.208;4.238;2023-04-03T14:11:36;3.25;;;1.40;;
14526;SDS011;7350;51.208;4.238;2023-04-03T14:14:09;2.50;;;1.20;;
14526;SDS011;7350;51.208;4.238;2023-04-03T14:16:41;3.33;;;1.20;;
14526;SDS011;7350;51.208;4.238;2023-04-03T14:19:16;2.80;;;1.30;;
14526;SDS011;7350;51.208;4.238;2023-04-03T14:21:47;3.00;;;1.33;;
14526;SDS011;7350;51.208;4.238;2023-04-03T14:24:16;2.72;;;1.30;;
14526;SDS011;7350;51.208;4.238;2023-04-03T14:26:44;2.78;;;1.20;;
14526;SDS011;7350;51.208;4.238;2023-04-03T14:29:13;2.20;;;1.17;;
14526;SDS011;7350;51.208;4.238;2023-04-03T14:31:40;2.45;;;1.20;;
14526;SDS011;7350;51.208;4.238;2023-04-03T14:34:09;2.13;;;1.20;;
14526;SDS011;7350;51.208;4.238;2023-04-03T14:36:36;1.45;;;0.90;;
14526;SDS011;7350;51.208;4.238;2023-04-03T14:39:04;3.35;;;1.15;;
14526;SDS011;7350;51.208;4.238;2023-04-03T14:41:32;6.22;;;1.55;;
14526;SDS011;7350;51.208;4.238;2023-04-03T14:43:59;2.30;;;1.10;;
14526;SDS011;7350;51.208;4.238;2023-04-03T14:46:28;3.03;;;1.23;;
14526;SDS011;7350;51.208;4.238;2023-04-03T14:48:57;1.92;;;1.00;;
14526;SDS011;7350;51.208;4.238;2023-04-03T14:51:24;2.28;;;1.13;;
14526;SDS011;7350;51.208;4.238;2023-04-03T14:53:51;3.42;;;1.10;;
14526;SDS011;7350;51.208;4.238;2023-04-03T14:56:21;3.17;;;1.00;;
14526;SDS011;7350;51.208;4.238;2023-04-03T14:58:53;3.13;;;1.30;;
14526;SDS011;7350;51.208;4.238;2023-04-03T15:01:22;1.48;;;0.80;;
14526;SDS011;7350;51.208;4.238;2023-04-03T15:03:51;3.22;;;1.13;;
14526;SDS011;7350;51.208;4.238;2023-04-03T15:06:18;1.95;;;1.10;;
14526;SDS011;7350;51.208;4.238;2023-04-03T15:08:47;2.17;;;1.10;;
14526;SDS011;7350;51.208;4.238;2023-04-03T15:11:14;2.15;;;0.85;;
14526;SDS011;7350;51.208;4.238;2023-04-03T15:13:41;3.42;;;0.95;;
14526;SDS011;7350;51.208;4.238;2023-04-03T15:16:13;3.22;;;1.10;;
14526;SDS011;7350;51.208;4.238;2023-04-03T15:18:41;1.20;;;0.90;;
14526;SDS011;7350;51.208;4.238;2023-04-03T15:21:11;3.08;;;1.25;;
14526;SDS011;7350;51.208;4.238;2023-04-03T15:23:38;2.65;;;1.13;;
14526;SDS011;7350;51.208;4.238;2023-04-03T15:26:07;1.75;;;0.90;;
14526;SDS011;7350;51.208;4.238;2023-04-03T15:28:35;2.80;;;1.10;;
14526;SDS011;7350;51.208;4.238;2023-04-03T15:31:04;2.28;;;0.90;;
14526;SDS011;7350;51.208;4.238;2023-04-03T15:33:32;1.38;;;0.70;;
14526;SDS011;7350;51.208;4.238;2023-04-03T15:36:00;2.17;;;0.82;;
14526;SDS011;7350;51.208;4.238;2023-04-03T15:38:28;1.65;;;0.85;;
14526;SDS011;7350;51.208;4.238;2023-04-03T15:40:55;2.15;;;0.80;;
14526;SDS011;7350;51.208;4.238;2023-04-03T15:43:23;1.65;;;0.90;;
14526;SDS011;7350;51.208;4.238;2023-04-03T15:45:50;1.20;;;0.80;;
14526;SDS011;7350;51.208;4.238;2023-04-03T15:48:17;2.80;;;0.90;;